sensor_id;sensor_type;location;lat;lon;timestamp;temperature;humidity
49124;DHT22;48506;48.202;16.274;2022-09-09T00:04:59;16.50;98.90
49124;DHT22;48506;48.202;16.274;2022-09-09T00:13:12;16.50;99.00
49124;DHT22;48506;48.202;16.274;2022-09-09T00:16:08;16.50;98.90
49124;DHT22;48506;48.202;16.274;2022-09-09T00:21:40;16.40;99.20
49124;DHT22;48506;48.202;16.274;2022-09-09T00:24:34;16.40;99.00
49124;DHT22;48506;48.202;16.274;2022-09-09T00:27:20;16.40;99.00
49124;DHT22;48506;48.202;16.274;2022-09-09T00:32:42;16.30;99.00
49124;DHT22;48506;48.202;16.274;2022-09-09T00:35:27;16.30;99.00
49124;DHT22;48506;48.202;16.274;2022-09-09T00:37:58;16.20;99.00
49124;DHT22;48506;48.202;16.274;2022-09-09T00:40:35;16.20;99.10
49124;DHT22;48506;48.202;16.274;2022-09-09T00:43:25;16.20;99.10
49124;DHT22;48506;48.202;16.274;2022-09-09T00:49:00;16.20;99.30
49124;DHT22;48506;48.202;16.274;2022-09-09T00:51:54;16.20;99.30
49124;DHT22;48506;48.202;16.274;2022-09-09T00:54:28;16.20;99.10
49124;DHT22;48506;48.202;16.274;2022-09-09T00:57:01;16.10;99.10
49124;DHT22;48506;48.202;16.274;2022-09-09T00:59:39;16.10;99.10
49124;DHT22;48506;48.202;16.274;2022-09-09T01:02:30;16.10;99.30
49124;DHT22;48506;48.202;16.274;2022-09-09T01:05:11;16.10;99.20
49124;DHT22;48506;48.202;16.274;2022-09-09T01:07:40;16.10;99.20
49124;DHT22;48506;48.202;16.274;2022-09-09T01:10:22;16.00;99.20
49124;DHT22;48506;48.202;16.274;2022-09-09T01:12:51;16.00;99.30
49124;DHT22;48506;48.202;16.274;2022-09-09T01:15:22;16.00;99.40
49124;DHT22;48506;48.202;16.274;2022-09-09T01:18:06;16.00;99.40
49124;DHT22;48506;48.202;16.274;2022-09-09T01:28:32;16.00;99.20
49124;DHT22;48506;48.202;16.274;2022-09-09T01:31:03;16.00;99.30
49124;DHT22;48506;48.202;16.274;2022-09-09T01:33:30;16.00;99.30
49124;DHT22;48506;48.202;16.274;2022-09-09T01:36:20;16.00;99.20
49124;DHT22;48506;48.202;16.274;2022-09-09T01:38:48;16.00;99.10
49124;DHT22;48506;48.202;16.274;2022-09-09T01:41:14;16.00;99.20
49124;DHT22;48506;48.202;16.274;2022-09-09T01:43:40;16.00;99.20
49124;DHT22;48506;48.202;16.274;2022-09-09T01:46:06;16.00;99.00
49124;DHT22;48506;48.202;16.274;2022-09-09T01:48:33;16.00;99.00
49124;DHT22;48506;48.202;16.274;2022-09-09T01:50:59;16.10;99.10
49124;DHT22;48506;48.202;16.274;2022-09-09T01:53:25;16.00;99.20
49124;DHT22;48506;48.202;16.274;2022-09-09T02:04:08;15.80;99.10
49124;DHT22;48506;48.202;16.274;2022-09-09T02:06:40;15.70;99.10
49124;DHT22;48506;48.202;16.274;2022-09-09T02:09:07;15.60;99.10
49124;DHT22;48506;48.202;16.274;2022-09-09T02:11:36;15.50;99.20
49124;DHT22;48506;48.202;16.274;2022-09-09T02:14:10;15.50;99.40
49124;DHT22;48506;48.202;16.274;2022-09-09T02:16:42;15.40;99.50
49124;DHT22;48506;48.202;16.274;2022-09-09T02:19:18;15.40;99.50
49124;DHT22;48506;48.202;16.274;2022-09-09T02:21:52;15.40;99.70
49124;DHT22;48506;48.202;16.274;2022-09-09T02:24:20;15.40;99.70
49124;DHT22;48506;48.202;16.274;2022-09-09T02:26:49;15.30;99.80
49124;DHT22;48506;48.202;16.274;2022-09-09T02:29:30;15.30;99.90
49124;DHT22;48506;48.202;16.274;2022-09-09T02:32:03;15.30;99.80
49124;DHT22;48506;48.202;16.274;2022-09-09T02:34:34;15.30;99.80
49124;DHT22;48506;48.202;16.274;2022-09-09T02:37:03;15.30;99.80
49124;DHT22;48506;48.202;16.274;2022-09-09T02:39:30;15.20;99.90
49124;DHT22;48506;48.202;16.274;2022-09-09T02:41:55;15.20;99.90
49124;DHT22;48506;48.202;16.274;2022-09-09T02:44:22;15.10;99.90
49124;DHT22;48506;48.202;16.274;2022-09-09T02:49:51;15.10;99.90
49124;DHT22;48506;48.202;16.274;2022-09-09T02:52:22;15.10;99.90
49124;DHT22;48506;48.202;16.274;2022-09-09T02:54:57;15.10;99.90
49124;DHT22;48506;48.202;16.274;2022-09-09T02:57:28;15.20;99.90
49124;DHT22;48506;48.202;16.274;2022-09-09T02:59:58;15.20;99.90
49124;DHT22;48506;48.202;16.274;2022-09-09T03:02:24;15.20;99.90
49124;DHT22;48506;48.202;16.274;2022-09-09T03:04:50;15.30;99.90
49124;DHT22;48506;48.202;16.274;2022-09-09T03:07:20;15.30;99.90
49124;DHT22;48506;48.202;16.274;2022-09-09T03:09:47;15.30;99.90
49124;DHT22;48506;48.202;16.274;2022-09-09T03:12:13;15.30;99.90
49124;DHT22;48506;48.202;16.274;2022-09-09T03:14:39;15.30;99.80
49124;DHT22;48506;48.202;16.274;2022-09-09T03:17:05;15.40;99.80
49124;DHT22;48506;48.202;16.274;2022-09-09T03:19:31;15.40;99.80
49124;DHT22;48506;48.202;16.274;2022-09-09T03:21:58;15.40;99.90
49124;DHT22;48506;48.202;16.274;2022-09-09T03:24:24;15.50;99.80
49124;DHT22;48506;48.202;16.274;2022-09-09T03:26:50;15.60;99.80
49124;DHT22;48506;48.202;16.274;2022-09-09T03:29:17;15.60;99.80
49124;DHT22;48506;48.202;16.274;2022-09-09T03:31:44;15.60;99.70
49124;DHT22;48506;48.202;16.274;2022-09-09T03:34:11;15.70;99.50
49124;DHT22;48506;48.202;16.274;2022-09-09T03:36:37;15.70;99.40
49124;DHT22;48506;48.202;16.274;2022-09-09T03:39:03;15.80;99.30
49124;DHT22;48506;48.202;16.274;2022-09-09T03:41:29;15.80;99.40
49124;DHT22;48506;48.202;16.274;2022-09-09T03:43:56;15.80;99.40
49124;DHT22;48506;48.202;16.274;2022-09-09T03:46:23;15.90;99.30
49124;DHT22;48506;48.202;16.274;2022-09-09T03:48:50;15.80;99.10
49124;DHT22;48506;48.202;16.274;2022-09-09T03:51:18;15.80;99.10
49124;DHT22;48506;48.202;16.274;2022-09-09T03:53:44;15.70;99.20
49124;DHT22;48506;48.202;16.274;2022-09-09T03:56:10;15.60;99.00
49124;DHT22;48506;48.202;16.274;2022-09-09T03:58:37;15.60;99.30
49124;DHT22;48506;48.202;16.274;2022-09-09T04:01:05;15.50;99.10
49124;DHT22;48506;48.202;16.274;2022-09-09T04:03:32;15.40;99.20
49124;DHT22;48506;48.202;16.274;2022-09-09T04:05:59;15.40;99.20
49124;DHT22;48506;48.202;16.274;2022-09-09T04:08:26;15.40;99.30
49124;DHT22;48506;48.202;16.274;2022-09-09T04:10:53;15.40;99.40
49124;DHT22;48506;48.202;16.274;2022-09-09T04:13:24;15.40;99.40
49124;DHT22;48506;48.202;16.274;2022-09-09T04:15:53;15.30;99.20
49124;DHT22;48506;48.202;16.274;2022-09-09T04:18:19;15.40;99.40
49124;DHT22;48506;48.202;16.274;2022-09-09T04:20:47;15.30;99.20
49124;DHT22;48506;48.202;16.274;2022-09-09T04:23:13;15.20;99.30
49124;DHT22;48506;48.202;16.274;2022-09-09T04:25:48;15.20;99.40
49124;DHT22;48506;48.202;16.274;2022-09-09T04:28:15;15.20;99.30
49124;DHT22;48506;48.202;16.274;2022-09-09T04:30:43;15.10;99.30
49124;DHT22;48506;48.202;16.274;2022-09-09T04:33:10;15.10;99.40
49124;DHT22;48506;48.202;16.274;2022-09-09T04:35:37;15.10;99.40
49124;DHT22;48506;48.202;16.274;2022-09-09T04:38:05;15.00;99.60
49124;DHT22;48506;48.202;16.274;2022-09-09T04:40:36;15.00;99.60
49124;DHT22;48506;48.202;16.274;2022-09-09T04:43:03;15.00;99.70
49124;DHT22;48506;48.202;16.274;2022-09-09T04:45:32;15.00;99.70
49124;DHT22;48506;48.202;16.274;2022-09-09T04:47:59;15.00;99.70
49124;DHT22;48506;48.202;16.274;2022-09-09T04:50:25;15.00;99.80
49124;DHT22;48506;48.202;16.274;2022-09-09T04:52:51;15.00;99.90
49124;DHT22;48506;48.202;16.274;2022-09-09T04:55:17;15.00;99.90
49124;DHT22;48506;48.202;16.274;2022-09-09T04:57:44;15.10;99.90
49124;DHT22;48506;48.202;16.274;2022-09-09T05:00:10;15.10;99.90
49124;DHT22;48506;48.202;16.274;2022-09-09T05:02:40;15.10;99.80
49124;DHT22;48506;48.202;16.274;2022-09-09T05:05:08;15.00;99.80
49124;DHT22;48506;48.202;16.274;2022-09-09T05:07:37;15.00;99.80
49124;DHT22;48506;48.202;16.274;2022-09-09T05:10:04;15.00;99.80
49124;DHT22;48506;48.202;16.274;2022-09-09T05:12:31;15.00;99.80
49124;DHT22;48506;48.202;16.274;2022-09-09T05:14:57;15.00;99.80
49124;DHT22;48506;48.202;16.274;2022-09-09T05:17:23;15.00;99.70
49124;DHT22;48506;48.202;16.274;2022-09-09T05:19:53;15.00;99.80
49124;DHT22;48506;48.202;16.274;2022-09-09T05:22:20;15.00;99.90
49124;DHT22;48506;48.202;16.274;2022-09-09T05:24:48;15.00;99.70
49124;DHT22;48506;48.202;16.274;2022-09-09T05:27:17;15.00;99.80
49124;DHT22;48506;48.202;16.274;2022-09-09T05:29:45;15.00;99.70
49124;DHT22;48506;48.202;16.274;2022-09-09T05:32:12;15.00;99.80
49124;DHT22;48506;48.202;16.274;2022-09-09T05:34:41;15.10;99.90
49124;DHT22;48506;48.202;16.274;2022-09-09T05:37:08;15.10;99.90
49124;DHT22;48506;48.202;16.274;2022-09-09T05:39:34;15.10;99.90
49124;DHT22;48506;48.202;16.274;2022-09-09T05:42:04;15.20;99.90
49124;DHT22;48506;48.202;16.274;2022-09-09T05:44:31;15.30;99.90
49124;DHT22;48506;48.202;16.274;2022-09-09T05:46:57;15.40;99.90
49124;DHT22;48506;48.202;16.274;2022-09-09T05:49:24;15.40;99.90
49124;DHT22;48506;48.202;16.274;2022-09-09T05:51:51;15.50;99.80
49124;DHT22;48506;48.202;16.274;2022-09-09T05:54:17;15.50;99.70
49124;DHT22;48506;48.202;16.274;2022-09-09T05:56:43;15.50;99.80
49124;DHT22;48506;48.202;16.274;2022-09-09T05:59:11;15.50;99.60
49124;DHT22;48506;48.202;16.274;2022-09-09T06:01:38;15.60;99.70
49124;DHT22;48506;48.202;16.274;2022-09-09T06:04:07;15.60;99.60
49124;DHT22;48506;48.202;16.274;2022-09-09T06:06:37;15.60;99.60
49124;DHT22;48506;48.202;16.274;2022-09-09T06:09:07;15.60;99.60
49124;DHT22;48506;48.202;16.274;2022-09-09T06:11:36;15.60;99.50
49124;DHT22;48506;48.202;16.274;2022-09-09T06:14:03;15.70;99.50
49124;DHT22;48506;48.202;16.274;2022-09-09T06:16:30;15.70;99.50
49124;DHT22;48506;48.202;16.274;2022-09-09T06:18:58;15.70;99.60
49124;DHT22;48506;48.202;16.274;2022-09-09T06:21:27;15.80;99.60
49124;DHT22;48506;48.202;16.274;2022-09-09T06:23:54;15.90;99.60
49124;DHT22;48506;48.202;16.274;2022-09-09T06:26:24;16.10;99.50
49124;DHT22;48506;48.202;16.274;2022-09-09T06:28:52;16.20;99.60
49124;DHT22;48506;48.202;16.274;2022-09-09T06:31:23;16.40;99.50
49124;DHT22;48506;48.202;16.274;2022-09-09T06:33:52;16.60;99.20
49124;DHT22;48506;48.202;16.274;2022-09-09T06:36:22;16.80;98.90
49124;DHT22;48506;48.202;16.274;2022-09-09T06:38:49;16.90;98.80
49124;DHT22;48506;48.202;16.274;2022-09-09T06:41:17;17.10;99.00
49124;DHT22;48506;48.202;16.274;2022-09-09T06:43:45;17.20;98.70
49124;DHT22;48506;48.202;16.274;2022-09-09T06:46:16;17.30;98.40
49124;DHT22;48506;48.202;16.274;2022-09-09T06:48:44;17.40;98.30
49124;DHT22;48506;48.202;16.274;2022-09-09T06:51:11;17.40;97.90
49124;DHT22;48506;48.202;16.274;2022-09-09T06:53:41;17.40;97.80
49124;DHT22;48506;48.202;16.274;2022-09-09T06:58:37;17.50;98.10
49124;DHT22;48506;48.202;16.274;2022-09-09T07:01:06;17.50;97.90
49124;DHT22;48506;48.202;16.274;2022-09-09T07:03:33;17.70;97.90
49124;DHT22;48506;48.202;16.274;2022-09-09T07:06:01;17.80;98.00
49124;DHT22;48506;48.202;16.274;2022-09-09T07:08:28;17.90;97.90
49124;DHT22;48506;48.202;16.274;2022-09-09T07:10:54;18.10;97.80
49124;DHT22;48506;48.202;16.274;2022-09-09T07:13:27;18.20;97.70
49124;DHT22;48506;48.202;16.274;2022-09-09T07:15:53;18.30;97.20
49124;DHT22;48506;48.202;16.274;2022-09-09T07:18:19;18.40;97.20
49124;DHT22;48506;48.202;16.274;2022-09-09T07:20:55;18.40;97.30
49124;DHT22;48506;48.202;16.274;2022-09-09T07:23:23;18.60;97.40
49124;DHT22;48506;48.202;16.274;2022-09-09T07:25:50;18.90;97.20
49124;DHT22;48506;48.202;16.274;2022-09-09T07:28:17;19.00;96.90
49124;DHT22;48506;48.202;16.274;2022-09-09T07:30:43;19.10;96.20
49124;DHT22;48506;48.202;16.274;2022-09-09T07:33:10;19.10;96.10
49124;DHT22;48506;48.202;16.274;2022-09-09T07:35:36;19.10;96.00
49124;DHT22;48506;48.202;16.274;2022-09-09T07:38:05;19.20;96.10
49124;DHT22;48506;48.202;16.274;2022-09-09T07:40:34;19.40;96.30
49124;DHT22;48506;48.202;16.274;2022-09-09T07:43:01;19.70;95.30
49124;DHT22;48506;48.202;16.274;2022-09-09T07:45:27;19.90;94.90
49124;DHT22;48506;48.202;16.274;2022-09-09T07:47:54;20.10;95.40
49124;DHT22;48506;48.202;16.274;2022-09-09T07:50:23;20.30;94.60
49124;DHT22;48506;48.202;16.274;2022-09-09T07:52:52;20.40;94.30
49124;DHT22;48506;48.202;16.274;2022-09-09T07:55:21;20.50;94.10
49124;DHT22;48506;48.202;16.274;2022-09-09T07:57:49;20.60;93.40
49124;DHT22;48506;48.202;16.274;2022-09-09T08:00:15;20.60;94.00
49124;DHT22;48506;48.202;16.274;2022-09-09T08:02:42;20.70;93.40
49124;DHT22;48506;48.202;16.274;2022-09-09T08:05:08;20.80;93.60
49124;DHT22;48506;48.202;16.274;2022-09-09T08:07:35;20.90;93.00
49124;DHT22;48506;48.202;16.274;2022-09-09T08:10:03;21.00;92.90
49124;DHT22;48506;48.202;16.274;2022-09-09T08:12:30;21.10;92.50
49124;DHT22;48506;48.202;16.274;2022-09-09T08:14:55;21.20;92.60
49124;DHT22;48506;48.202;16.274;2022-09-09T08:17:23;21.30;92.20
49124;DHT22;48506;48.202;16.274;2022-09-09T08:19:48;21.40;91.00
49124;DHT22;48506;48.202;16.274;2022-09-09T08:22:15;21.40;91.60
49124;DHT22;48506;48.202;16.274;2022-09-09T08:24:42;21.50;91.80
49124;DHT22;48506;48.202;16.274;2022-09-09T08:27:08;21.60;91.90
49124;DHT22;48506;48.202;16.274;2022-09-09T08:29:36;21.70;91.90
49124;DHT22;48506;48.202;16.274;2022-09-09T08:32:04;21.80;91.60
49124;DHT22;48506;48.202;16.274;2022-09-09T08:34:30;22.00;91.60
49124;DHT22;48506;48.202;16.274;2022-09-09T08:36:58;22.30;90.70
49124;DHT22;48506;48.202;16.274;2022-09-09T08:39:24;22.50;90.70
49124;DHT22;48506;48.202;16.274;2022-09-09T08:53:02;23.70;88.70
49124;DHT22;48506;48.202;16.274;2022-09-09T08:58:40;23.80;86.10
49124;DHT22;48506;48.202;16.274;2022-09-09T09:07:23;23.90;85.80
49124;DHT22;48506;48.202;16.274;2022-09-09T09:12:43;24.60;82.60
49124;DHT22;48506;48.202;16.274;2022-09-09T09:15:27;24.90;80.80
49124;DHT22;48506;48.202;16.274;2022-09-09T09:17:54;24.90;80.00
49124;DHT22;48506;48.202;16.274;2022-09-09T09:20:58;25.00;78.50
49124;DHT22;48506;48.202;16.274;2022-09-09T09:23:25;24.90;80.20
49124;DHT22;48506;48.202;16.274;2022-09-09T09:25:56;25.00;80.20
49124;DHT22;48506;48.202;16.274;2022-09-09T09:28:30;25.30;79.80
49124;DHT22;48506;48.202;16.274;2022-09-09T09:31:04;25.50;78.50
49124;DHT22;48506;48.202;16.274;2022-09-09T09:33:47;25.60;77.80
49124;DHT22;48506;48.202;16.274;2022-09-09T09:36:17;25.60;76.50
49124;DHT22;48506;48.202;16.274;2022-09-09T09:38:59;25.30;76.30
49124;DHT22;48506;48.202;16.274;2022-09-09T09:41:38;25.20;78.40
49124;DHT22;48506;48.202;16.274;2022-09-09T09:44:06;25.40;77.70
49124;DHT22;48506;48.202;16.274;2022-09-09T09:46:47;25.60;77.10
49124;DHT22;48506;48.202;16.274;2022-09-09T09:49:13;25.80;76.60
49124;DHT22;48506;48.202;16.274;2022-09-09T09:51:39;25.90;76.10
49124;DHT22;48506;48.202;16.274;2022-09-09T09:54:14;25.70;74.40
49124;DHT22;48506;48.202;16.274;2022-09-09T09:56:43;25.50;75.00
49124;DHT22;48506;48.202;16.274;2022-09-09T10:01:53;25.70;75.60
49124;DHT22;48506;48.202;16.274;2022-09-09T10:04:22;25.90;76.20
49124;DHT22;48506;48.202;16.274;2022-09-09T10:06:51;26.10;75.30
49124;DHT22;48506;48.202;16.274;2022-09-09T10:09:26;26.30;72.30
49124;DHT22;48506;48.202;16.274;2022-09-09T10:22:31;26.60;74.10
49124;DHT22;48506;48.202;16.274;2022-09-09T10:25:13;26.60;73.60
49124;DHT22;48506;48.202;16.274;2022-09-09T10:28:10;26.50;73.80
49124;DHT22;48506;48.202;16.274;2022-09-09T10:33:49;26.10;73.50
49124;DHT22;48506;48.202;16.274;2022-09-09T10:36:18;26.00;73.20
49124;DHT22;48506;48.202;16.274;2022-09-09T10:38:47;25.80;74.00
49124;DHT22;48506;48.202;16.274;2022-09-09T10:41:23;25.70;73.90
49124;DHT22;48506;48.202;16.274;2022-09-09T10:52:10;26.30;73.70
49124;DHT22;48506;48.202;16.274;2022-09-09T10:57:41;27.10;72.80
49124;DHT22;48506;48.202;16.274;2022-09-09T11:00:23;27.50;70.20
49124;DHT22;48506;48.202;16.274;2022-09-09T11:02:56;27.40;70.00
49124;DHT22;48506;48.202;16.274;2022-09-09T11:05:43;27.20;70.90
49124;DHT22;48506;48.202;16.274;2022-09-09T11:08:19;27.20;70.40
49124;DHT22;48506;48.202;16.274;2022-09-09T11:13:23;27.20;68.70
49124;DHT22;48506;48.202;16.274;2022-09-09T11:16:25;27.00;69.10
49124;DHT22;48506;48.202;16.274;2022-09-09T11:21:52;26.30;70.20
49124;DHT22;48506;48.202;16.274;2022-09-09T11:24:41;26.20;70.40
49124;DHT22;48506;48.202;16.274;2022-09-09T11:27:15;26.20;71.80
49124;DHT22;48506;48.202;16.274;2022-09-09T11:35:32;26.20;72.80
49124;DHT22;48506;48.202;16.274;2022-09-09T11:38:16;26.30;73.10
49124;DHT22;48506;48.202;16.274;2022-09-09T11:40:44;26.40;73.80
49124;DHT22;48506;48.202;16.274;2022-09-09T11:43:19;26.50;71.00
49124;DHT22;48506;48.202;16.274;2022-09-09T11:45:55;26.40;71.80
49124;DHT22;48506;48.202;16.274;2022-09-09T11:51:07;26.70;72.40
49124;DHT22;48506;48.202;16.274;2022-09-09T11:53:47;26.90;69.90
49124;DHT22;48506;48.202;16.274;2022-09-09T11:56:33;27.00;71.10
49124;DHT22;48506;48.202;16.274;2022-09-09T11:59:05;27.10;69.20
49124;DHT22;48506;48.202;16.274;2022-09-09T12:01:40;27.10;69.50
49124;DHT22;48506;48.202;16.274;2022-09-09T12:12:24;26.80;69.80
49124;DHT22;48506;48.202;16.274;2022-09-09T12:17:36;27.00;70.80
49124;DHT22;48506;48.202;16.274;2022-09-09T12:20:30;27.20;70.20
49124;DHT22;48506;48.202;16.274;2022-09-09T12:23:13;27.40;68.20
49124;DHT22;48506;48.202;16.274;2022-09-09T12:26:06;27.50;68.30
49124;DHT22;48506;48.202;16.274;2022-09-09T12:29:10;27.50;69.60
49124;DHT22;48506;48.202;16.274;2022-09-09T12:34:27;27.50;69.70
49124;DHT22;48506;48.202;16.274;2022-09-09T12:37:08;27.30;69.10
49124;DHT22;48506;48.202;16.274;2022-09-09T12:39:56;27.20;69.20
49124;DHT22;48506;48.202;16.274;2022-09-09T12:42:23;27.10;69.80
49124;DHT22;48506;48.202;16.274;2022-09-09T12:45:00;27.00;70.00
49124;DHT22;48506;48.202;16.274;2022-09-09T12:47:43;26.80;68.80
49124;DHT22;48506;48.202;16.274;2022-09-09T12:50:29;26.70;69.20
49124;DHT22;48506;48.202;16.274;2022-09-09T12:52:58;26.50;69.60
49124;DHT22;48506;48.202;16.274;2022-09-09T12:55:27;26.40;70.90
49124;DHT22;48506;48.202;16.274;2022-09-09T12:57:54;26.20;69.30
49124;DHT22;48506;48.202;16.274;2022-09-09T13:00:23;26.00;69.70
49124;DHT22;48506;48.202;16.274;2022-09-09T13:05:26;25.80;70.40
49124;DHT22;48506;48.202;16.274;2022-09-09T13:08:01;25.70;70.90
49124;DHT22;48506;48.202;16.274;2022-09-09T13:10:32;25.60;71.30
49124;DHT22;48506;48.202;16.274;2022-09-09T13:12:59;25.50;70.40
49124;DHT22;48506;48.202;16.274;2022-09-09T13:15:28;25.40;72.50
49124;DHT22;48506;48.202;16.274;2022-09-09T13:18:03;25.30;72.10
49124;DHT22;48506;48.202;16.274;2022-09-09T13:20:30;25.20;72.50
49124;DHT22;48506;48.202;16.274;2022-09-09T13:22:57;25.10;72.40
49124;DHT22;48506;48.202;16.274;2022-09-09T13:25:28;25.10;72.00
49124;DHT22;48506;48.202;16.274;2022-09-09T13:28:00;25.00;71.40
49124;DHT22;48506;48.202;16.274;2022-09-09T13:30:36;24.90;72.30
49124;DHT22;48506;48.202;16.274;2022-09-09T13:38:16;24.80;72.90
49124;DHT22;48506;48.202;16.274;2022-09-09T13:43:31;24.60;73.70
49124;DHT22;48506;48.202;16.274;2022-09-09T13:46:23;24.60;73.00
49124;DHT22;48506;48.202;16.274;2022-09-09T13:48:57;24.60;74.20
49124;DHT22;48506;48.202;16.274;2022-09-09T13:51:45;24.50;72.80
49124;DHT22;48506;48.202;16.274;2022-09-09T13:54:15;24.40;73.00
49124;DHT22;48506;48.202;16.274;2022-09-09T13:56:43;24.40;72.90
49124;DHT22;48506;48.202;16.274;2022-09-09T13:59:12;24.30;74.20
49124;DHT22;48506;48.202;16.274;2022-09-09T14:01:38;24.20;75.40
49124;DHT22;48506;48.202;16.274;2022-09-09T14:04:06;24.00;77.60
49124;DHT22;48506;48.202;16.274;2022-09-09T14:06:37;23.80;78.90
49124;DHT22;48506;48.202;16.274;2022-09-09T14:09:05;23.60;79.80
49124;DHT22;48506;48.202;16.274;2022-09-09T14:11:32;23.40;80.70
49124;DHT22;48506;48.202;16.274;2022-09-09T14:13:59;23.20;83.60
49124;DHT22;48506;48.202;16.274;2022-09-09T14:16:28;22.90;86.90
49124;DHT22;48506;48.202;16.274;2022-09-09T14:18:55;22.60;89.70
49124;DHT22;48506;48.202;16.274;2022-09-09T14:21:25;22.20;90.50
49124;DHT22;48506;48.202;16.274;2022-09-09T14:23:52;22.00;91.10
49124;DHT22;48506;48.202;16.274;2022-09-09T14:26:23;21.80;91.90
49124;DHT22;48506;48.202;16.274;2022-09-09T14:28:49;21.70;92.20
49124;DHT22;48506;48.202;16.274;2022-09-09T14:31:17;21.50;93.00
49124;DHT22;48506;48.202;16.274;2022-09-09T14:33:47;21.30;93.50
49124;DHT22;48506;48.202;16.274;2022-09-09T14:36:13;21.20;94.10
49124;DHT22;48506;48.202;16.274;2022-09-09T14:38:41;21.10;94.20
49124;DHT22;48506;48.202;16.274;2022-09-09T14:41:14;21.00;94.60
49124;DHT22;48506;48.202;16.274;2022-09-09T14:43:44;21.00;95.10
49124;DHT22;48506;48.202;16.274;2022-09-09T14:46:13;21.00;95.80
49124;DHT22;48506;48.202;16.274;2022-09-09T14:48:40;20.90;95.80
49124;DHT22;48506;48.202;16.274;2022-09-09T14:51:11;20.90;95.80
49124;DHT22;48506;48.202;16.274;2022-09-09T14:53:40;20.90;96.00
49124;DHT22;48506;48.202;16.274;2022-09-09T14:56:12;20.90;96.50
49124;DHT22;48506;48.202;16.274;2022-09-09T14:58:38;21.00;96.70
49124;DHT22;48506;48.202;16.274;2022-09-09T15:01:06;21.00;96.70
49124;DHT22;48506;48.202;16.274;2022-09-09T15:03:33;21.00;96.50
49124;DHT22;48506;48.202;16.274;2022-09-09T15:06:09;21.00;96.80
49124;DHT22;48506;48.202;16.274;2022-09-09T15:08:37;21.00;97.10
49124;DHT22;48506;48.202;16.274;2022-09-09T15:11:05;21.00;97.00
49124;DHT22;48506;48.202;16.274;2022-09-09T15:13:34;20.90;97.20
49124;DHT22;48506;48.202;16.274;2022-09-09T15:16:10;20.80;97.50
49124;DHT22;48506;48.202;16.274;2022-09-09T15:18:37;20.80;97.50
49124;DHT22;48506;48.202;16.274;2022-09-09T15:21:06;20.80;97.50
49124;DHT22;48506;48.202;16.274;2022-09-09T15:23:33;20.70;97.40
49124;DHT22;48506;48.202;16.274;2022-09-09T15:25:59;20.70;97.50
49124;DHT22;48506;48.202;16.274;2022-09-09T15:28:25;20.60;97.30
49124;DHT22;48506;48.202;16.274;2022-09-09T15:30:52;20.50;97.50
49124;DHT22;48506;48.202;16.274;2022-09-09T15:33:20;20.50;97.60
49124;DHT22;48506;48.202;16.274;2022-09-09T15:35:47;20.50;97.70
49124;DHT22;48506;48.202;16.274;2022-09-09T15:38:13;20.50;97.90
49124;DHT22;48506;48.202;16.274;2022-09-09T15:40:39;20.50;97.80
49124;DHT22;48506;48.202;16.274;2022-09-09T15:43:06;20.50;97.80
49124;DHT22;48506;48.202;16.274;2022-09-09T15:45:33;20.50;98.00
49124;DHT22;48506;48.202;16.274;2022-09-09T15:48:01;20.40;98.00
49124;DHT22;48506;48.202;16.274;2022-09-09T15:50:27;20.40;98.20
49124;DHT22;48506;48.202;16.274;2022-09-09T15:52:59;20.40;98.20
49124;DHT22;48506;48.202;16.274;2022-09-09T15:55:26;20.40;98.00
49124;DHT22;48506;48.202;16.274;2022-09-09T15:57:53;20.30;98.10
49124;DHT22;48506;48.202;16.274;2022-09-09T16:00:20;20.20;98.00
49124;DHT22;48506;48.202;16.274;2022-09-09T16:02:48;20.10;97.90
49124;DHT22;48506;48.202;16.274;2022-09-09T16:05:14;20.00;98.00
49124;DHT22;48506;48.202;16.274;2022-09-09T16:07:42;20.10;98.00
49124;DHT22;48506;48.202;16.274;2022-09-09T16:10:09;20.00;97.70
49124;DHT22;48506;48.202;16.274;2022-09-09T16:12:37;19.90;97.70
49124;DHT22;48506;48.202;16.274;2022-09-09T16:15:04;19.90;98.00
49124;DHT22;48506;48.202;16.274;2022-09-09T16:17:30;19.80;97.90
49124;DHT22;48506;48.202;16.274;2022-09-09T16:19:56;19.80;98.10
49124;DHT22;48506;48.202;16.274;2022-09-09T16:22:23;19.80;98.10
49124;DHT22;48506;48.202;16.274;2022-09-09T16:24:50;19.80;98.00
49124;DHT22;48506;48.202;16.274;2022-09-09T16:27:16;19.70;97.90
49124;DHT22;48506;48.202;16.274;2022-09-09T16:29:43;19.70;98.10
49124;DHT22;48506;48.202;16.274;2022-09-09T16:32:10;19.70;97.90
49124;DHT22;48506;48.202;16.274;2022-09-09T16:34:36;19.60;98.00
49124;DHT22;48506;48.202;16.274;2022-09-09T16:37:03;19.60;98.00
49124;DHT22;48506;48.202;16.274;2022-09-09T16:39:30;19.60;98.00
49124;DHT22;48506;48.202;16.274;2022-09-09T16:41:57;19.60;98.00
49124;DHT22;48506;48.202;16.274;2022-09-09T16:44:24;19.60;98.10
49124;DHT22;48506;48.202;16.274;2022-09-09T16:46:52;19.60;98.20
49124;DHT22;48506;48.202;16.274;2022-09-09T16:49:20;19.50;98.10
49124;DHT22;48506;48.202;16.274;2022-09-09T16:51:48;19.40;98.30
49124;DHT22;48506;48.202;16.274;2022-09-09T16:54:15;19.40;98.30
49124;DHT22;48506;48.202;16.274;2022-09-09T16:56:46;19.30;98.70
49124;DHT22;48506;48.202;16.274;2022-09-09T16:59:14;19.30;98.50
49124;DHT22;48506;48.202;16.274;2022-09-09T17:01:43;19.20;98.50
49124;DHT22;48506;48.202;16.274;2022-09-09T17:04:15;19.20;98.70
49124;DHT22;48506;48.202;16.274;2022-09-09T17:06:50;19.20;98.80
49124;DHT22;48506;48.202;16.274;2022-09-09T17:09:17;19.20;98.90
49124;DHT22;48506;48.202;16.274;2022-09-09T17:11:46;19.10;99.00
49124;DHT22;48506;48.202;16.274;2022-09-09T17:14:16;19.00;99.20
49124;DHT22;48506;48.202;16.274;2022-09-09T17:16:42;19.00;99.30
49124;DHT22;48506;48.202;16.274;2022-09-09T17:19:11;18.90;99.40
49124;DHT22;48506;48.202;16.274;2022-09-09T17:21:38;18.90;99.70
49124;DHT22;48506;48.202;16.274;2022-09-09T17:24:05;18.80;99.90
49124;DHT22;48506;48.202;16.274;2022-09-09T17:26:34;18.80;99.90
49124;DHT22;48506;48.202;16.274;2022-09-09T17:29:01;18.70;99.90
49124;DHT22;48506;48.202;16.274;2022-09-09T17:31:29;18.70;99.90
49124;DHT22;48506;48.202;16.274;2022-09-09T17:33:56;18.60;99.90
49124;DHT22;48506;48.202;16.274;2022-09-09T17:36:27;18.60;99.90
49124;DHT22;48506;48.202;16.274;2022-09-09T17:38:54;18.60;99.90
49124;DHT22;48506;48.202;16.274;2022-09-09T17:41:23;18.60;99.90
49124;DHT22;48506;48.202;16.274;2022-09-09T17:43:50;18.50;99.90